Time;durP1;ratioP1;P1;durP2;ratioP2;P2;SDS_P1;SDS_P2;PMS_P1;PMS_P2;Temp;Humidity;BMP_temperature;BMP_pressure;BME280_temperature;BME280_humidity;BME280_pressure;Samples;Min_cycle;Max_cycle;Signal;HPM_P1;HPM_P2
2022/05/27 00:01:22;;;;;;;3.78;1.80;;;17.50;99.90;;;;;;4975736;28;20026;-89
2022/05/27 00:03:49;;;;;;;2.63;1.90;;;17.50;99.90;;;;;;4975771;28;20487;-90
2022/05/27 00:06:14;;;;;;;3.72;1.63;;;17.40;99.90;;;;;;4971457;28;20027;-89
2022/05/27 00:08:40;;;;;;;3.83;1.85;;;17.40;99.90;;;;;;4956286;28;20035;-90
2022/05/27 00:11:06;;;;;;;3.75;1.83;;;17.40;99.90;;;;;;4976133;28;20027;-88
2022/05/27 00:13:33;;;;;;;6.43;2.33;;;17.40;99.90;;;;;;4975587;28;20031;-90
2022/05/27 00:15:58;;;;;;;3.25;1.50;;;17.40;99.90;;;;;;4958203;28;20027;-89
2022/05/27 00:18:24;;;;;;;4.38;1.80;;;17.50;99.90;;;;;;4958325;28;20100;-90
2022/05/27 00:20:50;;;;;;;1.98;1.60;;;17.30;99.90;;;;;;4953379;28;20023;-89
2022/05/27 00:23:16;;;;;;;4.30;1.80;;;17.30;99.90;;;;;;4976750;28;20038;-89
2022/05/27 00:25:42;;;;;;;2.75;1.63;;;17.40;99.90;;;;;;4957494;28;20115;-90
2022/05/27 00:28:08;;;;;;;2.58;1.75;;;17.30;99.90;;;;;;4975262;28;20203;-90
2022/05/27 00:30:35;;;;;;;5.40;2.20;;;17.30;99.90;;;;;;4975444;28;20030;-89
2022/05/27 00:33:01;;;;;;;3.03;1.80;;;17.20;99.90;;;;;;4971607;28;20166;-89
2022/05/27 00:35:27;;;;;;;3.10;2.20;;;17.30;99.90;;;;;;4973891;28;20064;-90
2022/05/27 00:37:53;;;;;;;3.15;1.60;;;17.30;99.90;;;;;;4976009;28;20495;-90
2022/05/27 00:40:21;;;;;;;2.88;1.92;;;17.10;99.90;;;;;;4974722;28;20105;-89
2022/05/27 00:42:47;;;;;;;3.47;1.90;;;17.10;99.90;;;;;;4955808;28;20026;-89
2022/05/27 00:45:17;;;;;;;2.63;1.80;;;17.20;99.90;;;;;;4974074;28;20034;-89
2022/05/27 00:47:45;;;;;;;3.88;2.22;;;17.10;99.90;;;;;;4972240;28;20431;-90
2022/05/27 00:50:15;;;;;;;3.08;2.13;;;17.10;99.90;;;;;;4976738;28;20019;-90
2022/05/27 00:52:42;;;;;;;2.40;2.20;;;17.00;99.90;;;;;;4964051;28;20037;-89
2022/05/27 00:55:12;;;;;;;5.07;2.83;;;16.90;99.90;;;;;;4980687;28;20030;-89
2022/05/27 00:57:42;;;;;;;5.10;2.45;;;16.90;99.90;;;;;;4973559;28;20037;-90
2022/05/27 01:00:19;;;;;;;3.95;2.15;;;16.90;99.90;;;;;;4972071;28;20030;-89
2022/05/27 01:02:45;;;;;;;2.60;2.08;;;16.80;99.90;;;;;;4955168;28;20039;-89
2022/05/27 01:05:13;;;;;;;2.92;1.98;;;16.80;99.90;;;;;;4976249;28;20034;-90
2022/05/27 01:07:39;;;;;;;3.42;2.03;;;16.80;99.90;;;;;;4975138;28;20035;-89
2022/05/27 01:10:09;;;;;;;3.92;1.85;;;16.90;99.90;;;;;;4971429;28;20053;-89
2022/05/27 01:12:50;;;;;;;3.72;2.05;;;16.80;99.90;;;;;;4971589;28;20034;-89
2022/05/27 01:15:28;;;;;;;3.30;2.05;;;16.90;99.90;;;;;;4960564;28;20027;-89
2022/05/27 01:18:06;;;;;;;3.92;1.70;;;16.70;99.90;;;;;;4959599;28;20050;-89
2022/05/27 01:20:50;;;;;;;5.40;1.92;;;16.60;99.90;;;;;;4976660;28;20026;-89
2022/05/27 01:23:16;;;;;;;3.05;1.90;;;16.50;99.90;;;;;;4976463;28;20522;-89
2022/05/27 01:26:06;;;;;;;3.80;1.90;;;16.50;99.90;;;;;;4978172;28;20023;-89
2022/05/27 01:29:13;;;;;;;2.92;2.13;;;16.50;99.90;;;;;;4977811;28;20062;-90
2022/05/27 01:32:01;;;;;;;4.85;1.90;;;16.60;99.90;;;;;;4897152;29;20096;-90
2022/05/27 01:34:35;;;;;;;3.95;1.73;;;16.50;99.90;;;;;;4897024;29;20099;-89
2022/05/27 01:37:20;;;;;;;3.83;1.90;;;16.40;99.90;;;;;;4896013;29;20410;-89
2022/05/27 01:40:07;;;;;;;3.38;2.05;;;16.40;99.90;;;;;;4880675;29;20521;-89
2022/05/27 01:42:37;;;;;;;3.20;2.00;;;16.30;99.90;;;;;;4896647;29;20043;-89
2022/05/27 01:45:19;;;;;;;3.30;1.80;;;16.30;99.90;;;;;;4896746;29;20043;-89
2022/05/27 01:48:36;;;;;;;2.60;1.70;;;16.20;99.90;;;;;;4896981;29;20045;-90
2022/05/27 01:51:24;;;;;;;3.10;1.98;;;16.10;99.90;;;;;;4857476;29;20044;-89
2022/05/27 01:54:27;;;;;;;4.43;2.20;;;16.10;99.90;;;;;;4843935;29;20101;-89
2022/05/27 01:57:03;;;;;;;4.18;2.25;;;16.10;99.90;;;;;;4842321;29;20497;-89
2022/05/27 01:59:59;;;;;;;3.42;2.22;;;16.10;99.90;;;;;;4862203;29;20034;-89
2022/05/27 02:02:29;;;;;;;3.88;2.13;;;16.00;99.90;;;;;;4871236;29;20159;-89
2022/05/27 02:05:04;;;;;;;4.15;2.30;;;16.10;99.90;;;;;;4864211;29;20159;-89
2022/05/27 02:07:49;;;;;;;4.55;2.10;;;16.00;99.90;;;;;;4879375;29;20055;-89
2022/05/27 02:10:26;;;;;;;2.85;1.83;;;16.10;99.90;;;;;;4895014;29;20505;-89
2022/05/27 02:13:05;;;;;;;2.72;1.80;;;16.20;99.90;;;;;;4905699;29;20032;-88
2022/05/27 02:15:37;;;;;;;3.75;2.10;;;16.00;99.90;;;;;;4908217;29;20067;-89
2022/05/27 02:18:28;;;;;;;5.18;2.55;;;16.10;99.90;;;;;;4908191;29;20461;-89
2022/05/27 02:21:17;;;;;;;4.47;2.20;;;16.10;99.90;;;;;;4876887;29;20120;-89
2022/05/27 02:23:52;;;;;;;3.70;2.17;;;16.00;99.90;;;;;;4895199;29;20044;-90
2022/05/27 02:26:24;;;;;;;5.47;2.15;;;16.10;99.90;;;;;;4914453;28;20035;-89
2022/05/27 02:28:59;;;;;;;5.97;2.22;;;16.10;99.90;;;;;;4977700;28;20050;-90
2022/05/27 02:31:30;;;;;;;2.72;2.20;;;16.10;99.90;;;;;;4975920;28;20082;-89
2022/05/27 02:36:59;;;;;;;3.67;2.30;;;16.00;99.90;;;;;;4971259;28;20046;-90
2022/05/27 02:39:25;;;;;;;5.20;2.00;;;16.00;99.90;;;;;;4957341;28;20030;-89
2022/05/27 02:42:10;;;;;;;3.70;2.10;;;16.00;99.90;;;;;;4957894;28;20023;-89
2022/05/27 02:44:48;;;;;;;2.10;1.90;;;15.90;99.90;;;;;;4986892;28;20468;-89
2022/05/27 02:47:23;;;;;;;3.38;2.20;;;15.90;99.90;;;;;;4978389;28;20070;-89
2022/05/27 02:50:04;;;;;;;4.82;2.50;;;15.90;99.90;;;;;;4975240;28;20043;-90
2022/05/27 02:52:42;;;;;;;2.92;2.10;;;15.90;99.90;;;;;;4960857;28;20613;-89
2022/05/27 02:55:26;;;;;;;2.38;1.98;;;15.90;99.90;;;;;;4976131;28;20119;-89
2022/05/27 02:57:54;;;;;;;4.65;2.40;;;15.80;99.90;;;;;;4975416;28;20035;-89
2022/05/27 03:00:23;;;;;;;4.25;2.47;;;15.80;99.90;;;;;;4974655;28;20038;-89
2022/05/27 03:02:50;;;;;;;5.18;2.53;;;15.90;99.90;;;;;;4972213;28;22253;-89
2022/05/27 03:05:18;;;;;;;3.30;2.00;;;15.90;99.90;;;;;;4977721;28;20053;-89
2022/05/27 03:07:59;;;;;;;2.75;2.25;;;15.90;99.90;;;;;;4957774;28;20396;-89
2022/05/27 03:10:40;;;;;;;3.55;2.50;;;16.00;99.90;;;;;;4976610;28;20110;-89
2022/05/27 03:13:15;;;;;;;3.72;2.28;;;16.00;99.90;;;;;;4976311;28;20027;-89
2022/05/27 03:15:53;;;;;;;4.93;2.30;;;15.90;99.90;;;;;;4976463;28;20038;-89
2022/05/27 03:18:33;;;;;;;4.05;2.30;;;15.90;99.90;;;;;;4958706;28;20499;-89
2022/05/27 03:21:20;;;;;;;6.70;2.20;;;16.00;99.90;;;;;;4964914;28;20026;-89
2022/05/27 03:23:54;;;;;;;3.70;2.22;;;15.90;99.90;;;;;;4972912;28;20089;-89
2022/05/27 03:26:42;;;;;;;4.07;2.20;;;15.70;99.90;;;;;;4985369;28;20475;-89
2022/05/27 03:29:29;;;;;;;3.40;2.00;;;15.60;99.90;;;;;;4982026;28;20070;-89
2022/05/27 03:32:07;;;;;;;3.17;2.20;;;15.70;99.90;;;;;;4977272;28;20026;-89
2022/05/27 03:34:53;;;;;;;4.20;2.30;;;15.60;99.90;;;;;;4955028;28;20038;-90
2022/05/27 03:37:19;;;;;;;2.45;2.20;;;15.60;99.90;;;;;;4963437;28;20030;-89
2022/05/27 03:39:51;;;;;;;4.28;2.35;;;15.70;99.90;;;;;;4976248;28;20110;-90
2022/05/27 03:42:19;;;;;;;3.75;2.45;;;15.60;99.90;;;;;;4975424;28;20156;-88
2022/05/27 03:45:13;;;;;;;2.80;2.38;;;15.60;99.90;;;;;;4955000;28;20034;-90
2022/05/27 03:47:40;;;;;;;2.65;2.13;;;15.60;99.90;;;;;;4983339;28;20046;-89
2022/05/27 03:50:08;;;;;;;3.92;2.17;;;15.50;99.90;;;;;;4975746;28;20054;-89
2022/05/27 03:52:40;;;;;;;2.85;2.03;;;15.50;99.90;;;;;;4975631;28;20039;-89
2022/05/27 03:55:09;;;;;;;3.08;2.20;;;15.60;99.90;;;;;;4960115;28;20408;-89
2022/05/27 03:57:35;;;;;;;3.97;2.28;;;15.60;99.90;;;;;;4985659;28;20034;-90
2022/05/27 04:00:01;;;;;;;3.25;2.13;;;15.60;99.90;;;;;;4971519;28;20027;-90
2022/05/27 04:02:27;;;;;;;2.55;2.05;;;15.50;99.90;;;;;;4976059;28;20023;-90
2022/05/27 04:04:52;;;;;;;3.95;2.30;;;15.50;99.90;;;;;;4974215;28;20085;-89
2022/05/27 04:07:18;;;;;;;4.32;2.30;;;15.60;99.90;;;;;;4972910;28;20419;-89
2022/05/27 04:09:44;;;;;;;2.50;2.25;;;15.60;99.90;;;;;;4975878;28;20026;-89
2022/05/27 04:12:09;;;;;;;2.88;2.28;;;16.00;99.90;;;;;;4974213;28;20034;-89
2022/05/27 04:14:35;;;;;;;2.65;2.17;;;15.60;99.90;;;;;;4974402;28;20026;-89
2022/05/27 04:19:45;;;;;;;4.38;2.47;;;15.50;99.90;;;;;;4973147;28;20089;-89
2022/05/27 04:22:11;;;;;;;5.13;2.40;;;15.60;99.90;;;;;;4975751;28;20407;-89
2022/05/27 04:24:37;;;;;;;6.22;2.58;;;15.40;99.90;;;;;;4974659;28;20034;-90
2022/05/27 04:27:14;;;;;;;4.90;2.60;;;15.40;99.90;;;;;;4953645;28;20065;-89
2022/05/27 04:29:43;;;;;;;3.53;2.25;;;15.50;99.90;;;;;;4973292;28;20082;-89
2022/05/27 04:32:09;;;;;;;5.10;2.50;;;15.50;99.90;;;;;;4977615;28;20019;-89
2022/05/27 04:34:35;;;;;;;3.22;2.17;;;15.40;99.90;;;;;;4960549;28;20039;-89
2022/05/27 04:37:01;;;;;;;3.15;2.20;;;15.30;99.90;;;;;;4964310;28;20027;-89
2022/05/27 04:39:27;;;;;;;4.43;2.17;;;15.10;99.90;;;;;;4958256;28;20057;-88
2022/05/27 04:41:52;;;;;;;4.15;2.28;;;15.20;99.90;;;;;;4971614;28;20480;-89
2022/05/27 04:44:18;;;;;;;4.53;3.15;;;15.30;99.90;;;;;;4977503;28;20568;-89
2022/05/27 04:46:45;;;;;;;4.70;2.60;;;15.30;99.90;;;;;;4968433;28;20394;-89
2022/05/27 04:49:50;;;;;;;3.88;2.40;;;15.20;99.90;;;;;;4976550;28;20034;-89
2022/05/27 04:51:58;;;;;;;4.63;2.15;;;15.40;99.90;;;;;;4977929;28;20030;-89
2022/05/27 04:54:23;;;;;;;6.72;2.42;;;15.50;99.90;;;;;;4990023;28;20045;-90
2022/05/27 04:56:49;;;;;;;8.07;2.53;;;15.50;99.90;;;;;;4958222;28;20106;-90
2022/05/27 04:59:15;;;;;;;4.55;2.58;;;15.60;99.90;;;;;;4981431;28;20510;-89
2022/05/27 05:01:40;;;;;;;3.25;2.60;;;15.60;99.90;;;;;;4979198;28;20061;-90
2022/05/27 05:04:06;;;;;;;4.90;2.75;;;15.70;99.90;;;;;;4973860;28;20027;-90
2022/05/27 05:06:32;;;;;;;5.03;2.72;;;15.70;99.90;;;;;;4961466;28;20033;-89
2022/05/27 05:08:57;;;;;;;4.38;2.38;;;15.80;99.90;;;;;;4975178;28;20479;-89
2022/05/27 05:11:23;;;;;;;3.33;2.38;;;15.80;99.90;;;;;;4980312;28;20072;-90
2022/05/27 05:13:49;;;;;;;3.67;2.45;;;15.90;99.90;;;;;;4960220;28;20062;-90
2022/05/27 05:16:14;;;;;;;4.75;2.45;;;15.90;99.90;;;;;;4978673;28;20034;-90
2022/05/27 05:18:40;;;;;;;4.35;2.83;;;15.80;99.90;;;;;;4972223;28;20039;-90
2022/05/27 05:21:06;;;;;;;4.43;2.78;;;15.70;99.90;;;;;;4976048;28;20030;-90
2022/05/27 05:23:31;;;;;;;3.90;2.83;;;15.90;99.90;;;;;;4978121;28;20027;-89
2022/05/27 05:25:57;;;;;;;6.85;2.75;;;15.90;99.90;;;;;;4962623;28;20126;-89
2022/05/27 05:28:22;;;;;;;4.13;2.60;;;15.90;99.90;;;;;;4977969;28;20042;-89
2022/05/27 05:30:48;;;;;;;4.15;2.70;;;16.00;99.90;;;;;;4978632;28;20023;-89
2022/05/27 05:33:14;;;;;;;4.80;2.70;;;15.90;99.90;;;;;;4955176;28;20039;-89
2022/05/27 05:35:39;;;;;;;3.88;2.72;;;15.90;99.90;;;;;;4959461;28;20030;-89
2022/05/27 05:38:06;;;;;;;5.72;2.80;;;15.90;99.90;;;;;;4993952;28;20022;-89
2022/05/27 05:40:32;;;;;;;4.00;2.55;;;16.00;99.90;;;;;;4981583;28;20488;-89
2022/05/27 05:43:00;;;;;;;4.53;3.03;;;16.00;99.90;;;;;;4978259;28;20052;-89
2022/05/27 05:45:26;;;;;;;3.10;2.60;;;16.00;99.90;;;;;;4977600;28;20022;-89
2022/05/27 05:47:52;;;;;;;4.90;2.92;;;16.10;99.90;;;;;;4955400;28;20408;-89
2022/05/27 05:50:17;;;;;;;6.18;2.95;;;16.10;99.90;;;;;;4975500;28;20019;-91
2022/05/27 05:52:44;;;;;;;5.53;2.83;;;16.60;99.90;;;;;;4977848;28;20118;-89
2022/05/27 05:55:12;;;;;;;4.10;2.80;;;16.20;99.90;;;;;;4983301;28;20492;-89
2022/05/27 05:57:43;;;;;;;4.40;2.35;;;16.20;99.90;;;;;;4975536;28;20031;-89
2022/05/27 06:00:18;;;;;;;4.85;2.88;;;16.30;99.90;;;;;;4962106;28;20384;-89
2022/05/27 06:02:43;;;;;;;3.92;2.85;;;16.40;99.90;;;;;;4971863;28;20035;-89
2022/05/27 06:05:09;;;;;;;4.68;2.85;;;16.50;99.90;;;;;;4989454;28;20037;-89
2022/05/27 06:07:35;;;;;;;6.07;2.67;;;16.30;99.90;;;;;;4975838;28;20061;-89
2022/05/27 06:10:02;;;;;;;4.03;2.75;;;16.40;99.90;;;;;;4976308;28;20062;-90
2022/05/27 06:12:28;;;;;;;3.78;2.90;;;16.50;99.90;;;;;;4974728;28;20029;-88
2022/05/27 06:14:54;;;;;;;6.13;3.00;;;16.50;99.90;;;;;;4973176;28;20110;-89
2022/05/27 06:17:20;;;;;;;3.47;2.75;;;16.50;99.90;;;;;;4979207;28;20054;-89
2022/05/27 06:19:46;;;;;;;3.22;2.70;;;16.70;99.90;;;;;;4983167;28;20452;-91
2022/05/27 06:22:13;;;;;;;2.92;2.42;;;17.20;99.90;;;;;;4966549;28;20065;-89
2022/05/27 06:24:39;;;;;;;3.70;2.53;;;16.90;99.90;;;;;;4958684;28;20169;-88
2022/05/27 06:27:06;;;;;;;5.03;2.78;;;16.90;99.90;;;;;;4974889;28;20466;-88
2022/05/27 06:35:01;;;;;;;4.38;2.80;;;17.10;99.90;;;;;;4977939;28;20045;-86
2022/05/27 06:37:27;;;;;;;3.00;2.70;;;17.30;99.90;;;;;;4971044;28;20047;-85
2022/05/27 06:39:53;;;;;;;4.07;3.00;;;17.30;99.90;;;;;;4977192;28;20057;-86
2022/05/27 06:42:19;;;;;;;5.65;3.08;;;17.20;99.90;;;;;;4976290;28;20033;-88
2022/05/27 06:44:44;;;;;;;3.70;3.25;;;17.30;99.90;;;;;;4973812;28;20032;-88
2022/05/27 06:47:11;;;;;;;4.82;3.10;;;17.30;99.90;;;;;;4961810;28;20038;-88
2022/05/27 06:49:38;;;;;;;5.35;3.33;;;17.40;99.90;;;;;;4977562;28;20039;-88
2022/05/27 06:52:05;;;;;;;4.00;2.53;;;17.30;99.90;;;;;;4973987;28;20034;-88
2022/05/27 06:54:31;;;;;;;4.50;2.72;;;17.40;99.90;;;;;;4966828;28;20034;-89
2022/05/27 06:56:56;;;;;;;4.82;3.00;;;17.50;99.90;;;;;;4972435;28;20027;-89
2022/05/27 06:59:23;;;;;;;7.22;3.00;;;17.60;99.90;;;;;;4961355;28;20384;-88
2022/05/27 07:01:49;;;;;;;2.90;2.60;;;17.60;99.90;;;;;;4977651;28;20046;-88
2022/05/27 07:04:17;;;;;;;3.35;2.67;;;17.70;99.90;;;;;;4960259;28;20015;-89
2022/05/27 07:06:46;;;;;;;2.92;2.70;;;17.70;99.90;;;;;;4972386;28;20035;-88
2022/05/27 07:09:14;;;;;;;4.78;2.60;;;17.60;99.90;;;;;;4974833;28;20038;-88
2022/05/27 07:11:41;;;;;;;5.72;2.70;;;17.70;99.90;;;;;;4974370;28;20054;-89
2022/05/27 07:14:07;;;;;;;3.92;2.60;;;17.80;99.90;;;;;;4976911;28;20423;-89
2022/05/27 07:16:34;;;;;;;4.43;2.33;;;17.90;99.90;;;;;;4976812;28;20101;-89
2022/05/27 07:18:59;;;;;;;5.18;2.85;;;18.00;99.90;;;;;;4977068;28;20082;-88
2022/05/27 07:21:25;;;;;;;2.40;2.20;;;18.00;99.90;;;;;;4971651;28;20026;-89
2022/05/27 07:23:53;;;;;;;2.70;2.50;;;18.10;99.90;;;;;;4969948;28;20044;-89
2022/05/27 07:26:19;;;;;;;3.53;2.22;;;18.10;99.90;;;;;;4989711;28;20037;-89
2022/05/27 07:28:45;;;;;;;2.88;2.30;;;18.30;99.90;;;;;;4960827;28;20042;-88
2022/05/27 07:31:10;;;;;;;4.32;1.90;;;18.30;99.90;;;;;;4975164;28;20048;-89
2022/05/27 07:33:36;;;;;;;1.92;1.67;;;18.30;99.90;;;;;;4975597;28;20521;-89
2022/05/27 07:36:01;;;;;;;2.15;1.80;;;18.30;99.90;;;;;;4973478;28;20034;-89
2022/05/27 07:38:27;;;;;;;2.40;1.63;;;18.40;99.90;;;;;;4974587;28;20057;-89
2022/05/27 07:40:54;;;;;;;2.30;1.75;;;18.50;99.90;;;;;;4977257;28;20428;-89
2022/05/27 07:43:20;;;;;;;2.97;1.95;;;18.60;99.90;;;;;;4958793;28;20026;-89
2022/05/27 07:45:46;;;;;;;3.88;1.90;;;18.50;99.90;;;;;;4976815;28;20483;-89
2022/05/27 07:48:12;;;;;;;2.20;1.80;;;18.60;99.90;;;;;;4974897;28;20034;-89
2022/05/27 07:50:39;;;;;;;8.30;2.40;;;18.60;99.90;;;;;;4957047;28;20023;-88
2022/05/27 07:53:05;;;;;;;2.33;1.85;;;18.80;99.90;;;;;;4977226;28;20027;-89
2022/05/27 07:55:31;;;;;;;3.72;1.90;;;18.80;99.90;;;;;;4975145;28;20035;-89
2022/05/27 07:57:57;;;;;;;2.33;1.88;;;18.80;99.90;;;;;;4975896;28;20510;-89
2022/05/27 08:00:27;;;;;;;3.47;2.00;;;18.90;99.90;;;;;;4975933;28;20069;-89
2022/05/27 08:02:52;;;;;;;4.07;2.00;;;18.90;99.90;;;;;;4938777;28;20018;-89
2022/05/27 08:05:21;;;;;;;2.00;1.80;;;18.90;99.90;;;;;;4961332;28;20026;-89
2022/05/27 08:07:48;;;;;;;4.25;2.47;;;19.00;99.90;;;;;;4957784;28;20022;-89
2022/05/27 08:10:16;;;;;;;3.75;1.77;;;19.20;99.90;;;;;;4962291;28;20042;-89
2022/05/27 08:12:42;;;;;;;2.83;1.90;;;19.20;99.90;;;;;;4974794;28;20022;-89
2022/05/27 08:15:09;;;;;;;2.17;1.60;;;19.30;99.90;;;;;;4972124;28;20390;-89
2022/05/27 08:17:38;;;;;;;3.30;1.77;;;19.30;99.90;;;;;;4975087;28;20081;-89
2022/05/27 08:20:05;;;;;;;3.90;1.50;;;19.50;99.90;;;;;;4974093;28;20430;-89
2022/05/27 08:22:31;;;;;;;6.25;1.80;;;19.60;99.90;;;;;;4973796;28;20515;-89
2022/05/27 08:24:57;;;;;;;2.92;1.67;;;19.70;99.90;;;;;;4980011;28;20023;-89
2022/05/27 08:27:22;;;;;;;2.22;1.48;;;19.80;99.90;;;;;;4980628;28;20034;-89
2022/05/27 08:29:48;;;;;;;2.75;1.50;;;19.90;99.90;;;;;;4976132;28;20026;-90
2022/05/27 08:32:14;;;;;;;3.67;1.58;;;19.90;99.90;;;;;;4978463;28;20364;-89
2022/05/27 08:40:47;;;;;;;5.53;2.03;;;20.20;99.90;;;;;;4978756;28;20038;-90
2022/05/27 08:43:31;;;;;;;2.92;1.40;;;20.40;99.90;;;;;;4898616;29;20044;-90
2022/05/27 08:46:12;;;;;;;5.28;1.67;;;20.30;99.90;;;;;;4894472;28;20466;-89
2022/05/27 08:48:42;;;;;;;2.15;1.10;;;20.40;99.90;;;;;;4872619;29;20188;-89
2022/05/27 08:51:22;;;;;;;5.53;1.40;;;20.50;99.90;;;;;;4898531;29;20032;-89
2022/05/27 08:54:14;;;;;;;2.40;1.60;;;20.70;99.90;;;;;;4882296;29;20107;-90
2022/05/27 08:59:53;;;;;;;2.58;1.52;;;20.70;99.90;;;;;;4898993;29;20075;-89
2022/05/27 09:02:33;;;;;;;3.53;1.23;;;20.70;99.90;;;;;;4897843;29;20104;-90
2022/05/27 09:05:19;;;;;;;2.15;1.30;;;20.80;99.90;;;;;;4898795;29;20037;-90
2022/05/27 09:07:51;;;;;;;3.20;1.40;;;20.90;99.90;;;;;;4898550;29;20040;-89
2022/05/27 09:10:47;;;;;;;6.85;1.80;;;21.10;99.90;;;;;;4882128;29;20064;-89
2022/05/27 09:13:20;;;;;;;4.72;1.50;;;21.10;99.90;;;;;;4897742;29;20120;-89
2022/05/27 09:16:12;;;;;;;3.28;1.17;;;21.30;99.90;;;;;;4897969;29;20043;-89
2022/05/27 09:18:41;;;;;;;4.47;1.33;;;21.40;99.90;;;;;;4933357;28;20062;-89
2022/05/27 09:21:12;;;;;;;2.38;1.10;;;21.30;99.90;;;;;;4959329;28;20113;-89
2022/05/27 09:24:08;;;;;;;3.40;1.60;;;21.50;99.90;;;;;;4993201;28;20030;-90
2022/05/27 09:26:43;;;;;;;3.35;1.30;;;21.70;99.90;;;;;;4968715;28;20035;-89
2022/05/27 09:29:33;;;;;;;2.13;1.30;;;21.80;99.90;;;;;;4979568;28;20053;-89
2022/05/27 09:32:30;;;;;;;3.40;1.60;;;22.00;99.90;;;;;;4978341;28;20022;-90
2022/05/27 09:35:03;;;;;;;3.33;1.50;;;22.00;99.90;;;;;;4974838;28;20507;-90
2022/05/27 09:37:37;;;;;;;1.58;1.00;;;22.10;99.90;;;;;;4958432;28;20037;-90
2022/05/27 09:40:13;;;;;;;2.13;1.30;;;22.30;99.90;;;;;;4962981;28;20050;-90
2022/05/27 09:42:51;;;;;;;3.13;1.20;;;22.20;99.90;;;;;;4974012;28;20132;-90
2022/05/27 09:45:17;;;;;;;2.95;1.10;;;22.30;99.90;;;;;;4973219;28;20138;-90
2022/05/27 09:47:43;;;;;;;2.95;1.15;;;22.30;99.90;;;;;;4974102;28;20118;-90
2022/05/27 09:50:31;;;;;;;2.47;1.10;;;22.50;99.90;;;;;;4963381;28;20062;-89
2022/05/27 09:52:58;;;;;;;2.83;1.27;;;22.80;99.90;;;;;;4960706;28;20027;-90
2022/05/27 09:55:39;;;;;;;1.92;1.40;;;23.10;99.90;;;;;;4961806;28;20031;-90
2022/05/27 09:58:07;;;;;;;3.72;1.30;;;23.10;99.90;;;;;;4977551;28;20496;-89
2022/05/27 10:00:49;;;;;;;3.63;1.30;;;22.80;99.90;;;;;;4959800;28;20101;-90
2022/05/27 10:03:36;;;;;;;3.58;1.30;;;22.80;99.90;;;;;;4958354;28;20030;-89
2022/05/27 10:06:17;;;;;;;4.25;1.00;;;22.90;99.90;;;;;;4970294;28;20019;-89
2022/05/27 10:08:55;;;;;;;1.90;1.20;;;22.90;99.90;;;;;;4975065;28;20405;-90
2022/05/27 10:11:30;;;;;;;1.00;0.88;;;22.90;99.90;;;;;;4987366;28;20053;-90
2022/05/27 10:14:22;;;;;;;1.95;0.82;;;22.90;99.90;;;;;;4974222;28;20452;-90
2022/05/27 10:17:27;;;;;;;3.38;1.10;;;22.80;99.90;;;;;;4971359;28;20047;-90
2022/05/27 10:20:14;;;;;;;4.32;1.20;;;22.80;99.90;;;;;;4966867;28;20042;-90
2022/05/27 10:22:40;;;;;;;1.65;1.15;;;22.90;99.90;;;;;;4976712;28;20041;-90
2022/05/27 10:25:11;;;;;;;2.60;1.30;;;22.90;99.90;;;;;;4957968;28;20121;-90
2022/05/27 10:27:44;;;;;;;1.75;1.00;;;23.00;99.90;;;;;;4961063;28;20034;-90
2022/05/27 10:30:31;;;;;;;4.18;1.13;;;23.20;99.90;;;;;;4975900;28;20038;-90
2022/05/27 10:33:20;;;;;;;1.10;1.00;;;23.40;99.90;;;;;;4959350;28;20054;-90
2022/05/27 10:35:47;;;;;;;1.17;1.00;;;23.30;99.90;;;;;;4956717;28;20512;-89
2022/05/27 10:38:25;;;;;;;1.15;0.95;;;23.50;99.90;;;;;;4974175;28;20019;-90
2022/05/27 10:41:16;;;;;;;2.95;1.48;;;23.60;99.90;;;;;;4974212;28;20511;-90
2022/05/27 10:44:05;;;;;;;2.58;1.13;;;23.90;99.90;;;;;;4976244;28;20038;-90
2022/05/27 10:46:36;;;;;;;1.23;0.93;;;23.60;99.90;;;;;;4976554;28;20391;-90
2022/05/27 10:49:13;;;;;;;4.68;1.08;;;23.30;99.90;;;;;;4981189;28;20121;-90
2022/05/27 10:52:18;;;;;;;3.28;1.17;;;24.00;99.90;;;;;;4986649;28;20023;-90
2022/05/27 10:55:10;;;;;;;1.88;1.20;;;24.70;99.90;;;;;;4978780;28;20034;-90
2022/05/27 11:04:32;;;;;;;2.83;0.80;;;24.30;99.90;;;;;;4977688;28;20566;-90
2022/05/27 11:07:13;;;;;;;8.05;1.05;;;24.20;99.90;;;;;;4882605;29;20425;-90
2022/05/27 11:09:58;;;;;;;1.55;0.80;;;24.40;99.90;;;;;;4895690;29;20085;-90
2022/05/27 11:16:00;;;;;;;2.22;0.70;;;24.30;99.90;;;;;;4838715;29;20042;-90
2022/05/27 11:18:58;;;;;;;4.75;1.20;;;24.00;99.90;;;;;;4838926;29;20050;-90
2022/05/27 11:21:35;;;;;;;1.50;0.93;;;23.70;99.90;;;;;;4838939;29;20053;-90
2022/05/27 11:24:42;;;;;;;2.33;0.90;;;23.70;99.90;;;;;;4823458;29;20107;-90
2022/05/27 11:27:23;;;;;;;1.13;0.80;;;23.80;99.90;;;;;;4832267;29;20046;-90
2022/05/27 11:30:28;;;;;;;1.40;0.90;;;24.10;99.90;;;;;;4839003;29;20121;-90
2022/05/27 11:33:38;;;;;;;2.35;0.90;;;23.90;99.90;;;;;;4822201;29;20053;-90
2022/05/27 11:36:20;;;;;;;1.10;0.80;;;24.30;99.90;;;;;;4824824;29;20034;-90
2022/05/27 11:39:04;;;;;;;1.50;0.90;;;24.40;99.90;;;;;;4838818;29;20042;-90
2022/05/27 11:41:53;;;;;;;1.70;0.80;;;24.50;99.90;;;;;;4836108;29;20120;-90
2022/05/27 11:44:33;;;;;;;1.90;1.00;;;24.80;99.90;;;;;;4876293;29;20096;-90
2022/05/27 11:47:22;;;;;;;1.13;0.80;;;25.30;99.90;;;;;;4918357;29;20553;-90
2022/05/27 11:50:19;;;;;;;1.58;0.95;;;26.40;99.90;;;;;;4903400;29;20043;-90
2022/05/27 11:52:53;;;;;;;3.35;1.30;;;28.80;99.90;;;;;;4942639;28;20039;-91
2022/05/27 11:55:25;;;;;;;2.53;0.80;;;30.50;99.90;;;;;;4956698;28;20515;-90
2022/05/27 11:58:16;;;;;;;1.05;0.80;;;31.10;99.90;;;;;;4957188;28;20066;-90
2022/05/27 12:01:03;;;;;;;1.52;0.70;;;31.30;99.90;;;;;;4957250;28;20027;-90
2022/05/27 12:03:52;;;;;;;1.15;0.80;;;32.50;99.90;;;;;;4936616;29;20467;-90
2022/05/27 12:06:23;;;;;;;0.88;0.85;;;32.60;99.90;;;;;;4954577;28;20033;-90
2022/05/27 12:08:59;;;;;;;0.70;0.70;;;32.90;99.90;;;;;;4952971;28;20027;-90
2022/05/27 12:11:38;;;;;;;2.47;0.90;;;32.90;99.90;;;;;;4966595;28;20035;-90
2022/05/27 12:14:13;;;;;;;3.42;0.90;;;33.30;99.90;;;;;;4965727;28;20023;-90
2022/05/27 12:16:42;;;;;;;2.17;0.70;;;33.50;99.90;;;;;;4965597;28;20055;-90
2022/05/27 12:19:13;;;;;;;0.95;0.73;;;33.90;99.90;;;;;;4975808;28;20023;-90
2022/05/27 12:21:49;;;;;;;1.40;0.70;;;33.80;99.90;;;;;;4977207;28;20447;-91
2022/05/27 12:24:20;;;;;;;1.05;0.70;;;33.80;99.90;;;;;;4956199;28;20058;-91
2022/05/27 12:26:50;;;;;;;2.17;1.00;;;33.50;99.90;;;;;;4972721;28;20027;-91
2022/05/27 12:29:16;;;;;;;0.70;0.70;;;33.60;99.90;;;;;;4973801;28;20133;-90
2022/05/27 12:31:42;;;;;;;1.95;0.80;;;33.10;99.90;;;;;;4976233;28;20038;-92
2022/05/27 12:34:26;;;;;;;5.00;1.10;;;33.80;99.90;;;;;;4976049;28;20031;-91
2022/05/27 12:36:53;;;;;;;1.23;0.68;;;32.80;99.90;;;;;;4973298;28;20395;-91
2022/05/27 12:39:27;;;;;;;0.73;0.60;;;32.50;99.90;;;;;;4975313;28;20053;-91
2022/05/27 12:42:32;;;;;;;1.10;0.77;;;32.30;99.90;;;;;;4956499;28;20035;-92
2022/05/27 12:45:20;;;;;;;0.98;0.73;;;31.10;99.90;;;;;;4943545;28;20049;-91
2022/05/27 12:47:51;;;;;;;4.00;1.00;;;31.50;99.90;;;;;;4971692;28;20119;-91
2022/05/27 12:50:25;;;;;;;1.88;0.80;;;31.70;99.90;;;;;;4992706;28;20506;-88
2022/05/27 12:52:53;;;;;;;0.77;0.63;;;31.60;99.90;;;;;;4974923;28;20034;-88
2022/05/27 13:02:19;;;;;;;1.23;0.80;;;31.00;99.90;;;;;;4894551;29;20123;-88
2022/05/27 13:04:53;;;;;;;1.63;0.73;;;30.80;99.90;;;;;;4879102;29;20039;-88
2022/05/27 13:07:43;;;;;;;1.00;0.80;;;30.90;99.90;;;;;;4899678;29;20040;-88
2022/05/27 13:10:17;;;;;;;2.42;0.93;;;30.30;99.90;;;;;;4882525;29;20192;-88
2022/05/27 13:12:48;;;;;;;2.90;0.90;;;30.00;99.90;;;;;;4894034;29;20037;-88
2022/05/27 13:15:53;;;;;;;2.45;0.80;;;30.00;99.90;;;;;;4897859;29;20052;-89
2022/05/27 13:18:25;;;;;;;1.58;0.90;;;30.60;99.90;;;;;;4886857;29;20072;-88
2022/05/27 13:20:54;;;;;;;0.80;0.70;;;31.00;99.90;;;;;;4898021;29;20063;-88
2022/05/27 13:23:24;;;;;;;0.98;0.60;;;31.30;99.90;;;;;;4894604;29;20043;-88
2022/05/27 13:26:02;;;;;;;1.10;0.80;;;31.70;99.90;;;;;;4897879;29;20553;-88
2022/05/27 13:28:35;;;;;;;0.77;0.70;;;31.30;99.90;;;;;;4897174;29;20044;-89
2022/05/27 13:31:10;;;;;;;2.00;0.80;;;30.80;99.90;;;;;;4899541;29;20059;-88
2022/05/27 13:33:52;;;;;;;2.50;0.90;;;30.80;99.90;;;;;;4930252;28;20043;-88
2022/05/27 13:36:26;;;;;;;1.70;0.80;;;30.20;99.90;;;;;;4977900;28;20498;-88
2022/05/27 13:38:58;;;;;;;0.95;0.70;;;30.60;99.90;;;;;;4958775;28;20023;-88
2022/05/27 13:41:26;;;;;;;1.50;0.90;;;30.90;99.90;;;;;;4988655;28;20468;-89
2022/05/27 13:43:53;;;;;;;1.25;0.88;;;30.90;99.90;;;;;;4972635;28;20081;-88
2022/05/27 13:46:31;;;;;;;2.53;0.70;;;30.50;99.90;;;;;;4984492;28;20029;-88
2022/05/27 13:49:01;;;;;;;2.40;0.95;;;31.10;99.90;;;;;;4985338;28;20050;-88
2022/05/27 13:51:27;;;;;;;0.70;0.70;;;31.10;99.90;;;;;;4975289;28;20019;-88
2022/05/27 13:53:53;;;;;;;1.35;0.88;;;30.40;99.90;;;;;;4973721;28;20397;-88
2022/05/27 13:56:29;;;;;;;1.88;0.90;;;30.20;99.90;;;;;;4980626;28;20082;-88
2022/05/27 13:59:04;;;;;;;1.58;0.65;;;30.60;99.90;;;;;;4961179;28;20035;-87